PWSweather.com
Personal Weather Stations
Station Observations
SD92115WX
El Cerrito Stoneybluff, San Diego, CA 92115

El Cerrito StoneybluffSan Diego, CA 92115

Lat: 32.754096, Lon: -117.066705

Elevation: 420

Station Type: Davis Vantage Vue

http://stoneybluff.com

High Low Average
Temperature 69.6°F20.9°C 60.1°F15.6°C 63.6°F17.6°C
Dew Point 56.7°F13.7°C 52.0°F11.1°C 55.4°F13.0°C
Winds 8.1 mph 13.0 kmh Calm Calm 2.0 mph SSW3.2 kmh SSW
Wind Gusts 14.8 mph23.8 kmh -- 4.0 mph6.4 kmh
Humidity 85% 56% 75%
Pressure 29.94 in1013.9 mb 29.86 in1011.2 mb -
Precipitation 0.00 in0.0 mm - -
Hour Temp Dew Point Humidity Winds Wind Gusts Pressure Precip Precip Rate Daily Precip Total
12:03 AM 61.9°F16.6°C 55.9°F13.3°C 81% 0.4 mph S0.6 kmh S 2.0 mph3.2 kmh 29.89 in1012.2 mb 0.00 in0.0 mm 0.00 in0.0 mm 0.00 in0.0 mm
12:08 AM 61.9°F16.6°C 55.9°F13.3°C 81% Calm Calm 2.0 mph3.2 kmh 29.89 in1012.2 mb 0.00 in0.0 mm 0.00 in0.0 mm 0.00 in0.0 mm
12:13 AM 61.9°F16.6°C 55.9°F13.3°C 81% Calm Calm -- 29.89 in1012.2 mb 0.00 in0.0 mm 0.00 in0.0 mm 0.00 in0.0 mm
12:18 AM 61.9°F16.6°C 55.9°F13.3°C 81% Calm Calm -- 29.89 in1012.2 mb 0.00 in0.0 mm 0.00 in0.0 mm 0.00 in0.0 mm
12:23 AM 61.9°F16.6°C 55.9°F13.3°C 81% Calm Calm -- 29.89 in1012.2 mb 0.00 in0.0 mm 0.00 in0.0 mm 0.00 in0.0 mm
12:28 AM 61.9°F16.6°C 55.9°F13.3°C 81% Calm Calm 2.0 mph3.2 kmh 29.89 in1012.2 mb 0.00 in0.0 mm 0.00 in0.0 mm 0.00 in0.0 mm
12:33 AM 61.9°F16.6°C 55.9°F13.3°C 81% Calm Calm -- 29.89 in1012.2 mb 0.00 in0.0 mm 0.00 in0.0 mm 0.00 in0.0 mm
12:38 AM 61.9°F16.6°C 55.9°F13.3°C 81% Calm Calm 1.1 mph1.8 kmh 29.89 in1012.2 mb 0.00 in0.0 mm 0.00 in0.0 mm 0.00 in0.0 mm
12:43 AM 61.9°F16.6°C 55.9°F13.3°C 81% 0.2 mph SW0.3 kmh SW 2.0 mph3.2 kmh 29.89 in1012.2 mb 0.00 in0.0 mm 0.00 in0.0 mm 0.00 in0.0 mm
12:48 AM 61.7°F16.5°C 55.8°F13.2°C 81% 0.4 mph SSE0.6 kmh SSE 2.0 mph3.2 kmh 29.89 in1012.2 mb 0.00 in0.0 mm 0.00 in0.0 mm 0.00 in0.0 mm
12:53 AM 61.7°F16.5°C 55.8°F13.2°C 81% Calm Calm -- 29.89 in1012.2 mb 0.00 in0.0 mm 0.00 in0.0 mm 0.00 in0.0 mm
12:58 AM 61.7°F16.5°C 55.8°F13.2°C 81% Calm Calm 1.1 mph1.8 kmh 29.88 in1011.9 mb 0.00 in0.0 mm 0.00 in0.0 mm 0.00 in0.0 mm
01:03 AM 61.7°F16.5°C 56.1°F13.4°C 82% Calm Calm -- 29.88 in1011.9 mb 0.00 in0.0 mm 0.00 in0.0 mm 0.00 in0.0 mm
01:08 AM 61.5°F16.4°C 55.9°F13.3°C 82% Calm Calm -- 29.89 in1012.2 mb 0.00 in0.0 mm 0.00 in0.0 mm 0.00 in0.0 mm
01:13 AM 61.5°F16.4°C 55.9°F13.3°C 82% Calm Calm -- 29.88 in1011.9 mb 0.00 in0.0 mm 0.00 in0.0 mm 0.00 in0.0 mm
01:18 AM 61.5°F16.4°C 55.9°F13.3°C 82% Calm Calm -- 29.88 in1011.9 mb 0.00 in0.0 mm 0.00 in0.0 mm 0.00 in0.0 mm
01:23 AM 61.3°F16.3°C 55.8°F13.2°C 82% Calm Calm -- 29.88 in1011.9 mb 0.00 in0.0 mm 0.00 in0.0 mm 0.00 in0.0 mm
01:28 AM 61.3°F16.3°C 55.8°F13.2°C 82% Calm Calm -- 29.88 in1011.9 mb 0.00 in0.0 mm 0.00 in0.0 mm 0.00 in0.0 mm
01:33 AM 61.3°F16.3°C 55.8°F13.2°C 82% Calm Calm -- 29.88 in1011.9 mb 0.00 in0.0 mm 0.00 in0.0 mm 0.00 in0.0 mm
01:38 AM 61.3°F16.3°C 55.8°F13.2°C 82% Calm Calm -- 29.88 in1011.9 mb 0.00 in0.0 mm 0.00 in0.0 mm 0.00 in0.0 mm
01:43 AM 61.3°F16.3°C 55.8°F13.2°C 82% Calm Calm -- 29.88 in1011.9 mb 0.00 in0.0 mm 0.00 in0.0 mm 0.00 in0.0 mm
01:48 AM 61.3°F16.3°C 55.8°F13.2°C 82% Calm Calm -- 29.88 in1011.9 mb 0.00 in0.0 mm 0.00 in0.0 mm 0.00 in0.0 mm
01:53 AM 61.2°F16.2°C 55.6°F13.1°C 82% Calm Calm -- 29.88 in1011.9 mb 0.00 in0.0 mm 0.00 in0.0 mm 0.00 in0.0 mm
01:58 AM 61.2°F16.2°C 55.6°F13.1°C 82% Calm Calm -- 29.88 in1011.9 mb 0.00 in0.0 mm 0.00 in0.0 mm 0.00 in0.0 mm
02:03 AM 61.2°F16.2°C 55.6°F13.1°C 82% Calm Calm -- 29.88 in1011.9 mb 0.00 in0.0 mm 0.00 in0.0 mm 0.00 in0.0 mm
02:08 AM 61.2°F16.2°C 55.6°F13.1°C 82% Calm Calm -- 29.88 in1011.9 mb 0.00 in0.0 mm 0.00 in0.0 mm 0.00 in0.0 mm
02:13 AM 61.2°F16.2°C 55.9°F13.3°C 83% Calm Calm -- 29.88 in1011.9 mb 0.00 in0.0 mm 0.00 in0.0 mm 0.00 in0.0 mm
02:18 AM 61.2°F16.2°C 55.9°F13.3°C 83% Calm Calm -- 29.88 in1011.9 mb 0.00 in0.0 mm 0.00 in0.0 mm 0.00 in0.0 mm
02:23 AM 61.2°F16.2°C 55.9°F13.3°C 83% Calm Calm -- 29.88 in1011.9 mb 0.00 in0.0 mm 0.00 in0.0 mm 0.00 in0.0 mm
02:28 AM 61.2°F16.2°C 55.9°F13.3°C 83% Calm Calm -- 29.88 in1011.9 mb 0.00 in0.0 mm 0.00 in0.0 mm 0.00 in0.0 mm
02:33 AM 61.2°F16.2°C 55.6°F13.1°C 82% Calm Calm -- 29.88 in1011.9 mb 0.00 in0.0 mm 0.00 in0.0 mm 0.00 in0.0 mm
02:38 AM 61.2°F16.2°C 55.6°F13.1°C 82% Calm Calm -- 29.88 in1011.9 mb 0.00 in0.0 mm 0.00 in0.0 mm 0.00 in0.0 mm
02:43 AM 61.2°F16.2°C 55.6°F13.1°C 82% Calm Calm -- 29.88 in1011.9 mb 0.00 in0.0 mm 0.00 in0.0 mm 0.00 in0.0 mm
02:48 AM 61.2°F16.2°C 55.6°F13.1°C 82% Calm Calm -- 29.88 in1011.9 mb 0.00 in0.0 mm 0.00 in0.0 mm 0.00 in0.0 mm
02:53 AM 61.2°F16.2°C 55.9°F13.3°C 83% Calm Calm -- 29.88 in1011.9 mb 0.00 in0.0 mm 0.00 in0.0 mm 0.00 in0.0 mm
02:58 AM 61.2°F16.2°C 55.6°F13.1°C 82% Calm Calm -- 29.88 in1011.9 mb 0.00 in0.0 mm 0.00 in0.0 mm 0.00 in0.0 mm
03:03 AM 61.0°F16.1°C 55.4°F13.0°C 82% Calm Calm -- 29.88 in1011.9 mb 0.00 in0.0 mm 0.00 in0.0 mm 0.00 in0.0 mm
03:08 AM 61.0°F16.1°C 55.4°F13.0°C 82% Calm Calm -- 29.87 in1011.5 mb 0.00 in0.0 mm 0.00 in0.0 mm 0.00 in0.0 mm
03:13 AM 61.0°F16.1°C 55.8°F13.2°C 83% Calm Calm -- 29.87 in1011.5 mb 0.00 in0.0 mm 0.00 in0.0 mm 0.00 in0.0 mm
03:18 AM 61.0°F16.1°C 55.8°F13.2°C 83% Calm Calm -- 29.87 in1011.5 mb 0.00 in0.0 mm 0.00 in0.0 mm 0.00 in0.0 mm
03:23 AM 61.0°F16.1°C 55.8°F13.2°C 83% Calm Calm -- 29.87 in1011.5 mb 0.00 in0.0 mm 0.00 in0.0 mm 0.00 in0.0 mm
03:28 AM 61.0°F16.1°C 55.8°F13.2°C 83% Calm Calm -- 29.87 in1011.5 mb 0.00 in0.0 mm 0.00 in0.0 mm 0.00 in0.0 mm
03:33 AM 60.8°F16.0°C 55.6°F13.1°C 83% Calm Calm -- 29.87 in1011.5 mb 0.00 in0.0 mm 0.00 in0.0 mm 0.00 in0.0 mm
03:38 AM 60.8°F16.0°C 55.6°F13.1°C 83% Calm Calm -- 29.87 in1011.5 mb 0.00 in0.0 mm 0.00 in0.0 mm 0.00 in0.0 mm
03:43 AM 60.8°F16.0°C 55.6°F13.1°C 83% Calm Calm -- 29.87 in1011.5 mb 0.00 in0.0 mm 0.00 in0.0 mm 0.00 in0.0 mm
03:48 AM 60.6°F15.9°C 55.4°F13.0°C 83% Calm Calm -- 29.87 in1011.5 mb 0.00 in0.0 mm 0.00 in0.0 mm 0.00 in0.0 mm
03:53 AM 60.6°F15.9°C 55.4°F13.0°C 83% Calm Calm -- 29.87 in1011.5 mb 0.00 in0.0 mm 0.00 in0.0 mm 0.00 in0.0 mm
03:58 AM 60.6°F15.9°C 55.4°F13.0°C 83% Calm Calm -- 29.87 in1011.5 mb 0.00 in0.0 mm 0.00 in0.0 mm 0.00 in0.0 mm
04:03 AM 60.6°F15.9°C 55.4°F13.0°C 83% Calm Calm -- 29.87 in1011.5 mb 0.00 in0.0 mm 0.00 in0.0 mm 0.00 in0.0 mm
04:08 AM 60.4°F15.8°C 55.2°F12.9°C 83% Calm Calm -- 29.87 in1011.5 mb 0.00 in0.0 mm 0.00 in0.0 mm 0.00 in0.0 mm
04:13 AM 60.4°F15.8°C 55.6°F13.1°C 84% Calm Calm -- 29.87 in1011.5 mb 0.00 in0.0 mm 0.00 in0.0 mm 0.00 in0.0 mm
04:18 AM 60.6°F15.9°C 55.8°F13.2°C 84% Calm Calm -- 29.87 in1011.5 mb 0.00 in0.0 mm 0.00 in0.0 mm 0.00 in0.0 mm
04:23 AM 60.4°F15.8°C 55.6°F13.1°C 84% Calm Calm -- 29.87 in1011.5 mb 0.00 in0.0 mm 0.00 in0.0 mm 0.00 in0.0 mm
04:28 AM 60.4°F15.8°C 55.6°F13.1°C 84% Calm Calm -- 29.87 in1011.5 mb 0.00 in0.0 mm 0.00 in0.0 mm 0.00 in0.0 mm
04:33 AM 60.3°F15.7°C 55.4°F13.0°C 84% Calm Calm -- 29.87 in1011.5 mb 0.00 in0.0 mm 0.00 in0.0 mm 0.00 in0.0 mm
04:38 AM 60.3°F15.7°C 55.4°F13.0°C 84% Calm Calm -- 29.87 in1011.5 mb 0.00 in0.0 mm 0.00 in0.0 mm 0.00 in0.0 mm
04:43 AM 60.3°F15.7°C 55.4°F13.0°C 84% Calm Calm -- 29.87 in1011.5 mb 0.00 in0.0 mm 0.00 in0.0 mm 0.00 in0.0 mm
04:48 AM 60.3°F15.7°C 55.4°F13.0°C 84% Calm Calm -- 29.87 in1011.5 mb 0.00 in0.0 mm 0.00 in0.0 mm 0.00 in0.0 mm
04:53 AM 60.3°F15.7°C 55.4°F13.0°C 84% Calm Calm -- 29.87 in1011.5 mb 0.00 in0.0 mm 0.00 in0.0 mm 0.00 in0.0 mm
04:58 AM 60.3°F15.7°C 55.4°F13.0°C 84% Calm Calm -- 29.87 in1011.5 mb 0.00 in0.0 mm 0.00 in0.0 mm 0.00 in0.0 mm
05:03 AM 60.3°F15.7°C 55.4°F13.0°C 84% Calm Calm -- 29.87 in1011.5 mb 0.00 in0.0 mm 0.00 in0.0 mm 0.00 in0.0 mm
05:08 AM 60.3°F15.7°C 55.4°F13.0°C 84% Calm Calm -- 29.87 in1011.5 mb 0.00 in0.0 mm 0.00 in0.0 mm 0.00 in0.0 mm
05:13 AM 60.1°F15.6°C 55.2°F12.9°C 84% Calm Calm -- 29.87 in1011.5 mb 0.00 in0.0 mm 0.00 in0.0 mm 0.00 in0.0 mm
05:18 AM 60.1°F15.6°C 55.2°F12.9°C 84% Calm Calm -- 29.87 in1011.5 mb 0.00 in0.0 mm 0.00 in0.0 mm 0.00 in0.0 mm
05:23 AM 60.1°F15.6°C 55.6°F13.1°C 85% Calm Calm -- 29.87 in1011.5 mb 0.00 in0.0 mm 0.00 in0.0 mm 0.00 in0.0 mm
05:28 AM 60.1°F15.6°C 55.6°F13.1°C 85% Calm Calm -- 29.87 in1011.5 mb 0.00 in0.0 mm 0.00 in0.0 mm 0.00 in0.0 mm
05:33 AM 60.1°F15.6°C 55.6°F13.1°C 85% Calm Calm -- 29.87 in1011.5 mb 0.00 in0.0 mm 0.00 in0.0 mm 0.00 in0.0 mm
05:38 AM 60.3°F15.7°C 55.8°F13.2°C 85% Calm Calm -- 29.87 in1011.5 mb 0.00 in0.0 mm 0.00 in0.0 mm 0.00 in0.0 mm
05:43 AM 60.3°F15.7°C 55.8°F13.2°C 85% Calm Calm -- 29.87 in1011.5 mb 0.00 in0.0 mm 0.00 in0.0 mm 0.00 in0.0 mm
05:48 AM 60.3°F15.7°C 55.8°F13.2°C 85% Calm Calm -- 29.87 in1011.5 mb 0.00 in0.0 mm 0.00 in0.0 mm 0.00 in0.0 mm
05:53 AM 60.3°F15.7°C 55.8°F13.2°C 85% Calm Calm -- 29.87 in1011.5 mb 0.00 in0.0 mm 0.00 in0.0 mm 0.00 in0.0 mm
05:58 AM 60.1°F15.6°C 55.6°F13.1°C 85% Calm Calm -- 29.88 in1011.9 mb 0.00 in0.0 mm 0.00 in0.0 mm 0.00 in0.0 mm
06:03 AM 60.1°F15.6°C 55.6°F13.1°C 85% Calm Calm -- 29.88 in1011.9 mb 0.00 in0.0 mm 0.00 in0.0 mm 0.00 in0.0 mm
06:08 AM 60.3°F15.7°C 55.8°F13.2°C 85% Calm Calm -- 29.88 in1011.9 mb 0.00 in0.0 mm 0.00 in0.0 mm 0.00 in0.0 mm
06:13 AM 60.3°F15.7°C 55.8°F13.2°C 85% Calm Calm -- 29.88 in1011.9 mb 0.00 in0.0 mm 0.00 in0.0 mm 0.00 in0.0 mm
06:18 AM 60.3°F15.7°C 55.8°F13.2°C 85% Calm Calm -- 29.88 in1011.9 mb 0.00 in0.0 mm 0.00 in0.0 mm 0.00 in0.0 mm
06:23 AM 60.3°F15.7°C 55.8°F13.2°C 85% Calm Calm -- 29.88 in1011.9 mb 0.00 in0.0 mm 0.00 in0.0 mm 0.00 in0.0 mm
06:28 AM 60.3°F15.7°C 55.8°F13.2°C 85% Calm Calm -- 29.88 in1011.9 mb 0.00 in0.0 mm 0.00 in0.0 mm 0.00 in0.0 mm
06:33 AM 60.4°F15.8°C 55.9°F13.3°C 85% Calm Calm -- 29.88 in1011.9 mb 0.00 in0.0 mm 0.00 in0.0 mm 0.00 in0.0 mm
06:38 AM 60.4°F15.8°C 55.9°F13.3°C 85% Calm Calm -- 29.88 in1011.9 mb 0.00 in0.0 mm 0.00 in0.0 mm 0.00 in0.0 mm
06:43 AM 60.4°F15.8°C 55.9°F13.3°C 85% Calm Calm -- 29.88 in1011.9 mb 0.00 in0.0 mm 0.00 in0.0 mm 0.00 in0.0 mm
06:48 AM 60.6°F15.9°C 56.1°F13.4°C 85% Calm Calm -- 29.88 in1011.9 mb 0.00 in0.0 mm 0.00 in0.0 mm 0.00 in0.0 mm
06:53 AM 60.6°F15.9°C 56.1°F13.4°C 85% Calm Calm -- 29.89 in1012.2 mb 0.00 in0.0 mm 0.00 in0.0 mm 0.00 in0.0 mm
06:58 AM 61.0°F16.1°C 56.5°F13.6°C 85% Calm Calm -- 29.89 in1012.2 mb 0.00 in0.0 mm 0.00 in0.0 mm 0.00 in0.0 mm
07:03 AM 61.2°F16.2°C 56.3°F13.5°C 84% Calm Calm -- 29.89 in1012.2 mb 0.00 in0.0 mm 0.00 in0.0 mm 0.00 in0.0 mm
07:08 AM 61.3°F16.3°C 56.5°F13.6°C 84% Calm Calm 1.1 mph1.8 kmh 29.89 in1012.2 mb 0.00 in0.0 mm 0.00 in0.0 mm 0.00 in0.0 mm
07:13 AM 61.5°F16.4°C 56.3°F13.5°C 83% Calm Calm 1.1 mph1.8 kmh 29.89 in1012.2 mb 0.00 in0.0 mm 0.00 in0.0 mm 0.00 in0.0 mm
07:18 AM 61.9°F16.6°C 56.7°F13.7°C 83% Calm Calm -- 29.90 in1012.5 mb 0.00 in0.0 mm 0.00 in0.0 mm 0.00 in0.0 mm
07:23 AM 61.9°F16.6°C 56.3°F13.5°C 82% Calm Calm -- 29.90 in1012.5 mb 0.00 in0.0 mm 0.00 in0.0 mm 0.00 in0.0 mm
07:28 AM 62.2°F16.8°C 56.7°F13.7°C 82% Calm Calm 1.1 mph1.8 kmh 29.90 in1012.5 mb 0.00 in0.0 mm 0.00 in0.0 mm 0.00 in0.0 mm
07:33 AM 62.4°F16.9°C 56.5°F13.6°C 81% Calm Calm -- 29.90 in1012.5 mb 0.00 in0.0 mm 0.00 in0.0 mm 0.00 in0.0 mm
07:38 AM 62.4°F16.9°C 56.1°F13.4°C 80% Calm Calm 1.1 mph1.8 kmh 29.90 in1012.5 mb 0.00 in0.0 mm 0.00 in0.0 mm 0.00 in0.0 mm
07:43 AM 62.8°F17.1°C 56.5°F13.6°C 80% Calm Calm 1.1 mph1.8 kmh 29.90 in1012.5 mb 0.00 in0.0 mm 0.00 in0.0 mm 0.00 in0.0 mm
07:48 AM 63.0°F17.2°C 56.7°F13.7°C 80% Calm Calm 1.1 mph1.8 kmh 29.90 in1012.5 mb 0.00 in0.0 mm 0.00 in0.0 mm 0.00 in0.0 mm
07:53 AM 63.0°F17.2°C 55.9°F13.3°C 78% Calm Calm 1.1 mph1.8 kmh 29.90 in1012.5 mb 0.00 in0.0 mm 0.00 in0.0 mm 0.00 in0.0 mm
07:58 AM 63.3°F17.4°C 56.3°F13.5°C 78% Calm Calm 1.1 mph1.8 kmh 29.90 in1012.5 mb 0.00 in0.0 mm 0.00 in0.0 mm 0.00 in0.0 mm
08:03 AM 63.5°F17.5°C 56.1°F13.4°C 77% 0.4 mph WSW0.6 kmh WSW 2.0 mph3.2 kmh 29.90 in1012.5 mb 0.00 in0.0 mm 0.00 in0.0 mm 0.00 in0.0 mm
08:08 AM 63.5°F17.5°C 56.1°F13.4°C 77% Calm Calm 4.3 mph6.9 kmh 29.90 in1012.5 mb 0.00 in0.0 mm 0.00 in0.0 mm 0.00 in0.0 mm
08:13 AM 63.7°F17.6°C 56.3°F13.5°C 77% 0.2 mph SE0.3 kmh SE 3.1 mph5.0 kmh 29.90 in1012.5 mb 0.00 in0.0 mm 0.00 in0.0 mm 0.00 in0.0 mm
08:18 AM 63.9°F17.7°C 56.5°F13.6°C 77% 0.7 mph SW1.1 kmh SW 2.0 mph3.2 kmh 29.90 in1012.5 mb 0.00 in0.0 mm 0.00 in0.0 mm 0.00 in0.0 mm
08:23 AM 63.9°F17.7°C 56.1°F13.4°C 76% 1.8 mph SW2.9 kmh SW 5.4 mph8.7 kmh 29.90 in1012.5 mb 0.00 in0.0 mm 0.00 in0.0 mm 0.00 in0.0 mm
08:28 AM 63.9°F17.7°C 56.1°F13.4°C 76% 0.7 mph SW1.1 kmh SW 4.3 mph6.9 kmh 29.90 in1012.5 mb 0.00 in0.0 mm 0.00 in0.0 mm 0.00 in0.0 mm
08:33 AM 63.9°F17.7°C 55.8°F13.2°C 75% 0.2 mph SW0.3 kmh SW 3.1 mph5.0 kmh 29.90 in1012.5 mb 0.00 in0.0 mm 0.00 in0.0 mm 0.00 in0.0 mm
08:38 AM 64.0°F17.8°C 55.9°F13.3°C 75% 1.1 mph SW1.8 kmh SW 3.1 mph5.0 kmh 29.90 in1012.5 mb 0.00 in0.0 mm 0.00 in0.0 mm 0.00 in0.0 mm
08:43 AM 64.4°F18.0°C 56.3°F13.5°C 75% Calm Calm 3.1 mph5.0 kmh 29.90 in1012.5 mb 0.00 in0.0 mm 0.00 in0.0 mm 0.00 in0.0 mm
08:48 AM 64.6°F18.1°C 56.5°F13.6°C 75% Calm Calm 1.1 mph1.8 kmh 29.90 in1012.5 mb 0.00 in0.0 mm 0.00 in0.0 mm 0.00 in0.0 mm
08:53 AM 64.8°F18.2°C 56.3°F13.5°C 74% 2.0 mph SW3.2 kmh SW 4.3 mph6.9 kmh 29.90 in1012.5 mb 0.00 in0.0 mm 0.00 in0.0 mm 0.00 in0.0 mm
08:58 AM 64.9°F18.3°C 56.5°F13.6°C 74% 3.1 mph SSW5.0 kmh SSW 5.4 mph8.7 kmh 29.90 in1012.5 mb 0.00 in0.0 mm 0.00 in0.0 mm 0.00 in0.0 mm
09:03 AM 65.1°F18.4°C 56.3°F13.5°C 73% 1.3 mph SSW2.1 kmh SSW 4.3 mph6.9 kmh 29.90 in1012.5 mb 0.00 in0.0 mm 0.00 in0.0 mm 0.00 in0.0 mm
09:08 AM 65.5°F18.6°C 56.7°F13.7°C 73% 3.1 mph SW5.0 kmh SW 5.4 mph8.7 kmh 29.91 in1012.9 mb 0.00 in0.0 mm 0.00 in0.0 mm 0.00 in0.0 mm
09:13 AM 65.5°F18.6°C 56.3°F13.5°C 72% 1.6 mph WSW2.6 kmh WSW 5.4 mph8.7 kmh 29.91 in1012.9 mb 0.00 in0.0 mm 0.00 in0.0 mm 0.00 in0.0 mm
09:18 AM 65.5°F18.6°C 56.3°F13.5°C 72% 1.6 mph NW2.6 kmh NW 5.4 mph8.7 kmh 29.90 in1012.5 mb 0.00 in0.0 mm 0.00 in0.0 mm 0.00 in0.0 mm
09:23 AM 65.5°F18.6°C 56.3°F13.5°C 72% 1.3 mph SW2.1 kmh SW 5.4 mph8.7 kmh 29.90 in1012.5 mb 0.00 in0.0 mm 0.00 in0.0 mm 0.00 in0.0 mm
09:28 AM 65.7°F18.7°C 55.9°F13.3°C 71% 1.1 mph SW1.8 kmh SW 2.0 mph3.2 kmh 29.90 in1012.5 mb 0.00 in0.0 mm 0.00 in0.0 mm 0.00 in0.0 mm
09:33 AM 65.8°F18.8°C 56.1°F13.4°C 71% 2.7 mph SW4.3 kmh SW 6.3 mph10.1 kmh 29.91 in1012.9 mb 0.00 in0.0 mm 0.00 in0.0 mm 0.00 in0.0 mm
09:38 AM 65.8°F18.8°C 55.8°F13.2°C 70% 1.6 mph SSW2.6 kmh SSW 6.3 mph10.1 kmh 29.91 in1012.9 mb 0.00 in0.0 mm 0.00 in0.0 mm 0.00 in0.0 mm
09:43 AM 65.8°F18.8°C 55.4°F13.0°C 69% 4.5 mph SW7.2 kmh SW 6.3 mph10.1 kmh 29.91 in1012.9 mb 0.00 in0.0 mm 0.00 in0.0 mm 0.00 in0.0 mm
09:48 AM 65.8°F18.8°C 55.8°F13.2°C 70% 2.2 mph SW3.5 kmh SW 5.4 mph8.7 kmh 29.91 in1012.9 mb 0.00 in0.0 mm 0.00 in0.0 mm 0.00 in0.0 mm
09:53 AM 65.8°F18.8°C 55.4°F13.0°C 69% 0.9 mph SSW1.4 kmh SSW 6.3 mph10.1 kmh 29.91 in1012.9 mb 0.00 in0.0 mm 0.00 in0.0 mm 0.00 in0.0 mm
09:58 AM 66.2°F19.0°C 55.4°F13.0°C 68% 3.6 mph SW5.8 kmh SW 7.4 mph11.9 kmh 29.91 in1012.9 mb 0.00 in0.0 mm 0.00 in0.0 mm 0.00 in0.0 mm
10:03 AM 66.0°F18.9°C 55.2°F12.9°C 68% 3.8 mph SSW6.1 kmh SSW 7.4 mph11.9 kmh 29.91 in1012.9 mb 0.00 in0.0 mm 0.00 in0.0 mm 0.00 in0.0 mm
10:08 AM 66.2°F19.0°C 55.4°F13.0°C 68% 2.9 mph SW4.7 kmh SW 7.4 mph11.9 kmh 29.91 in1012.9 mb 0.00 in0.0 mm 0.00 in0.0 mm 0.00 in0.0 mm
10:13 AM 66.4°F19.1°C 55.6°F13.1°C 68% 5.4 mph WSW8.7 kmh WSW 9.6 mph15.4 kmh 29.91 in1012.9 mb 0.00 in0.0 mm 0.00 in0.0 mm 0.00 in0.0 mm
10:18 AM 66.0°F18.9°C 55.6°F13.1°C 69% 1.1 mph WNW1.8 kmh WNW 7.4 mph11.9 kmh 29.91 in1012.9 mb 0.00 in0.0 mm 0.00 in0.0 mm 0.00 in0.0 mm
10:23 AM 66.2°F19.0°C 55.4°F13.0°C 68% 3.6 mph SW5.8 kmh SW 5.4 mph8.7 kmh 29.91 in1012.9 mb 0.00 in0.0 mm 0.00 in0.0 mm 0.00 in0.0 mm
10:28 AM 66.2°F19.0°C 55.4°F13.0°C 68% 2.5 mph WSW4.0 kmh WSW 6.3 mph10.1 kmh 29.90 in1012.5 mb 0.00 in0.0 mm 0.00 in0.0 mm 0.00 in0.0 mm
10:33 AM 66.6°F19.2°C 56.1°F13.4°C 69% 3.6 mph WSW5.8 kmh WSW 9.6 mph15.4 kmh 29.90 in1012.5 mb 0.00 in0.0 mm 0.00 in0.0 mm 0.00 in0.0 mm
10:38 AM 66.2°F19.0°C 55.4°F13.0°C 68% 4.0 mph SSE6.4 kmh SSE 8.5 mph13.7 kmh 29.90 in1012.5 mb 0.00 in0.0 mm 0.00 in0.0 mm 0.00 in0.0 mm
10:43 AM 66.0°F18.9°C 55.6°F13.1°C 69% 3.8 mph SW6.1 kmh SW 7.4 mph11.9 kmh 29.90 in1012.5 mb 0.00 in0.0 mm 0.00 in0.0 mm 0.00 in0.0 mm
10:48 AM 66.0°F18.9°C 55.6°F13.1°C 69% 2.2 mph S3.5 kmh S 6.3 mph10.1 kmh 29.90 in1012.5 mb 0.00 in0.0 mm 0.00 in0.0 mm 0.00 in0.0 mm
10:53 AM 66.2°F19.0°C 55.8°F13.2°C 69% 4.3 mph SSW6.9 kmh SSW 7.4 mph11.9 kmh 29.90 in1012.5 mb 0.00 in0.0 mm 0.00 in0.0 mm 0.00 in0.0 mm
10:58 AM 66.4°F19.1°C 55.9°F13.3°C 69% 2.9 mph SW4.7 kmh SW 8.5 mph13.7 kmh 29.90 in1012.5 mb 0.00 in0.0 mm 0.00 in0.0 mm 0.00 in0.0 mm
11:03 AM 66.6°F19.2°C 56.5°F13.6°C 70% 2.7 mph SSW4.3 kmh SSW 7.4 mph11.9 kmh 29.90 in1012.5 mb 0.00 in0.0 mm 0.00 in0.0 mm 0.00 in0.0 mm
11:08 AM 66.6°F19.2°C 55.6°F13.1°C 68% 4.7 mph SW7.6 kmh SW 7.4 mph11.9 kmh 29.89 in1012.2 mb 0.00 in0.0 mm 0.00 in0.0 mm 0.00 in0.0 mm
11:13 AM 66.7°F19.3°C 55.4°F13.0°C 67% 4.9 mph SSW7.9 kmh SSW 7.4 mph11.9 kmh 29.89 in1012.2 mb 0.00 in0.0 mm 0.00 in0.0 mm 0.00 in0.0 mm
11:18 AM 66.9°F19.4°C 55.6°F13.1°C 67% 4.3 mph SW6.9 kmh SW 7.4 mph11.9 kmh 29.89 in1012.2 mb 0.00 in0.0 mm 0.00 in0.0 mm 0.00 in0.0 mm
11:23 AM 66.9°F19.4°C 55.6°F13.1°C 67% 4.5 mph SW7.2 kmh SW 7.4 mph11.9 kmh 29.89 in1012.2 mb 0.00 in0.0 mm 0.00 in0.0 mm 0.00 in0.0 mm
11:28 AM 66.9°F19.4°C 55.9°F13.3°C 68% 3.6 mph S5.8 kmh S 7.4 mph11.9 kmh 29.88 in1011.9 mb 0.00 in0.0 mm 0.00 in0.0 mm 0.00 in0.0 mm
11:33 AM 66.9°F19.4°C 55.9°F13.3°C 68% 6.3 mph SW10.1 kmh SW 10.5 mph16.9 kmh 29.88 in1011.9 mb 0.00 in0.0 mm 0.00 in0.0 mm 0.00 in0.0 mm
11:38 AM 66.9°F19.4°C 55.9°F13.3°C 68% 3.4 mph SW5.5 kmh SW 10.5 mph16.9 kmh 29.88 in1011.9 mb 0.00 in0.0 mm 0.00 in0.0 mm 0.00 in0.0 mm
11:43 AM 67.5°F19.7°C 56.1°F13.4°C 67% 6.7 mph SSW10.8 kmh SSW 10.5 mph16.9 kmh 29.88 in1011.9 mb 0.00 in0.0 mm 0.00 in0.0 mm 0.00 in0.0 mm
11:48 AM 67.6°F19.8°C 56.3°F13.5°C 67% 2.5 mph WSW4.0 kmh WSW 7.4 mph11.9 kmh 29.88 in1011.9 mb 0.00 in0.0 mm 0.00 in0.0 mm 0.00 in0.0 mm
11:53 AM 67.6°F19.8°C 55.4°F13.0°C 65% 4.9 mph SE7.9 kmh SE 10.5 mph16.9 kmh 29.88 in1011.9 mb 0.00 in0.0 mm 0.00 in0.0 mm 0.00 in0.0 mm
11:58 AM 68.2°F20.1°C 55.0°F12.8°C 63% 3.6 mph SE5.8 kmh SE 9.6 mph15.4 kmh 29.87 in1011.5 mb 0.00 in0.0 mm 0.00 in0.0 mm 0.00 in0.0 mm
12:03 PM 68.2°F20.1°C 55.6°F13.1°C 64% 4.5 mph SSW7.2 kmh SSW 9.6 mph15.4 kmh 29.87 in1011.5 mb 0.00 in0.0 mm 0.00 in0.0 mm 0.00 in0.0 mm
12:08 PM 68.0°F20.0°C 55.4°F13.0°C 64% 4.5 mph S7.2 kmh S 7.4 mph11.9 kmh 29.87 in1011.5 mb 0.00 in0.0 mm 0.00 in0.0 mm 0.00 in0.0 mm
12:13 PM 68.2°F20.1°C 55.0°F12.8°C 63% 4.9 mph SW7.9 kmh SW 10.5 mph16.9 kmh 29.87 in1011.5 mb 0.00 in0.0 mm 0.00 in0.0 mm 0.00 in0.0 mm
12:18 PM 67.8°F19.9°C 54.7°F12.6°C 63% 4.9 mph SW7.9 kmh SW 11.6 mph18.7 kmh 29.87 in1011.5 mb 0.00 in0.0 mm 0.00 in0.0 mm 0.00 in0.0 mm
12:23 PM 68.0°F20.0°C 54.9°F12.7°C 63% 5.1 mph SW8.2 kmh SW 11.6 mph18.7 kmh 29.87 in1011.5 mb 0.00 in0.0 mm 0.00 in0.0 mm 0.00 in0.0 mm
12:28 PM 67.6°F19.8°C 54.7°F12.6°C 63% 6.0 mph SW9.7 kmh SW 11.6 mph18.7 kmh 29.87 in1011.5 mb 0.00 in0.0 mm 0.00 in0.0 mm 0.00 in0.0 mm
12:33 PM 67.5°F19.7°C 54.5°F12.5°C 63% 5.4 mph SW8.7 kmh SW 9.6 mph15.4 kmh 29.87 in1011.5 mb 0.00 in0.0 mm 0.00 in0.0 mm 0.00 in0.0 mm
12:38 PM 67.6°F19.8°C 55.0°F12.8°C 64% 5.4 mph SW8.7 kmh SW 10.5 mph16.9 kmh 29.87 in1011.5 mb 0.00 in0.0 mm 0.00 in0.0 mm 0.00 in0.0 mm
12:43 PM 67.6°F19.8°C 54.7°F12.6°C 63% 5.1 mph WSW8.2 kmh WSW 10.5 mph16.9 kmh 29.87 in1011.5 mb 0.00 in0.0 mm 0.00 in0.0 mm 0.00 in0.0 mm
12:48 PM 67.6°F19.8°C 53.8°F12.1°C 61% 8.1 mph SW13.0 kmh SW 13.9 mph22.4 kmh 29.87 in1011.5 mb 0.00 in0.0 mm 0.00 in0.0 mm 0.00 in0.0 mm
12:53 PM 68.4°F20.2°C 54.0°F12.2°C 60% 4.5 mph WSW7.2 kmh WSW 8.5 mph13.7 kmh 29.87 in1011.5 mb 0.00 in0.0 mm 0.00 in0.0 mm 0.00 in0.0 mm
12:58 PM 68.0°F20.0°C 53.6°F12.0°C 60% 5.6 mph SSW9.0 kmh SSW 12.8 mph20.6 kmh 29.87 in1011.5 mb 0.00 in0.0 mm 0.00 in0.0 mm 0.00 in0.0 mm
01:03 PM 68.4°F20.2°C 53.4°F11.9°C 59% 7.2 mph W11.6 kmh W 12.8 mph20.6 kmh 29.87 in1011.5 mb 0.00 in0.0 mm 0.00 in0.0 mm 0.00 in0.0 mm
01:08 PM 68.4°F20.2°C 53.1°F11.7°C 58% 6.0 mph WSW9.7 kmh WSW 11.6 mph18.7 kmh 29.87 in1011.5 mb 0.00 in0.0 mm 0.00 in0.0 mm 0.00 in0.0 mm
01:13 PM 69.1°F20.6°C 53.6°F12.0°C 58% 6.7 mph SW10.8 kmh SW 12.8 mph20.6 kmh 29.86 in1011.2 mb 0.00 in0.0 mm 0.00 in0.0 mm 0.00 in0.0 mm
01:18 PM 68.7°F20.4°C 53.8°F12.1°C 59% 6.7 mph SW10.8 kmh SW 13.9 mph22.4 kmh 29.86 in1011.2 mb 0.00 in0.0 mm 0.00 in0.0 mm 0.00 in0.0 mm
01:23 PM 68.5°F20.3°C 53.6°F12.0°C 59% 7.6 mph WSW12.2 kmh WSW 11.6 mph18.7 kmh 29.86 in1011.2 mb 0.00 in0.0 mm 0.00 in0.0 mm 0.00 in0.0 mm
01:28 PM 68.9°F20.5°C 54.0°F12.2°C 59% 4.5 mph SW7.2 kmh SW 10.5 mph16.9 kmh 29.86 in1011.2 mb 0.00 in0.0 mm 0.00 in0.0 mm 0.00 in0.0 mm
01:33 PM 69.6°F20.9°C 54.1°F12.3°C 58% 4.9 mph WNW7.9 kmh WNW 11.6 mph18.7 kmh 29.86 in1011.2 mb 0.00 in0.0 mm 0.00 in0.0 mm 0.00 in0.0 mm
01:38 PM 69.3°F20.7°C 53.4°F11.9°C 57% 4.7 mph SSW7.6 kmh SSW 11.6 mph18.7 kmh 29.86 in1011.2 mb 0.00 in0.0 mm 0.00 in0.0 mm 0.00 in0.0 mm
01:43 PM 68.5°F20.3°C 53.2°F11.8°C 58% 6.0 mph SW9.7 kmh SW 12.8 mph20.6 kmh 29.86 in1011.2 mb 0.00 in0.0 mm 0.00 in0.0 mm 0.00 in0.0 mm
01:48 PM 68.4°F20.2°C 53.1°F11.7°C 58% 7.8 mph SSW12.6 kmh SSW 12.8 mph20.6 kmh 29.86 in1011.2 mb 0.00 in0.0 mm 0.00 in0.0 mm 0.00 in0.0 mm
01:53 PM 68.2°F20.1°C 52.9°F11.6°C 58% 5.4 mph WSW8.7 kmh WSW 11.6 mph18.7 kmh 29.86 in1011.2 mb 0.00 in0.0 mm 0.00 in0.0 mm 0.00 in0.0 mm
01:58 PM 68.2°F20.1°C 52.9°F11.6°C 58% 7.2 mph SW11.6 kmh SW 11.6 mph18.7 kmh 29.86 in1011.2 mb 0.00 in0.0 mm 0.00 in0.0 mm 0.00 in0.0 mm
02:03 PM 67.8°F19.9°C 52.9°F11.6°C 59% 5.1 mph SSW8.2 kmh SSW 12.8 mph20.6 kmh 29.86 in1011.2 mb 0.00 in0.0 mm 0.00 in0.0 mm 0.00 in0.0 mm
02:08 PM 67.8°F19.9°C 52.9°F11.6°C 59% 7.2 mph SSW11.6 kmh SSW 13.9 mph22.4 kmh 29.86 in1011.2 mb 0.00 in0.0 mm 0.00 in0.0 mm 0.00 in0.0 mm
02:13 PM 68.4°F20.2°C 53.1°F11.7°C 58% 6.3 mph SW10.1 kmh SW 11.6 mph18.7 kmh 29.86 in1011.2 mb 0.00 in0.0 mm 0.00 in0.0 mm 0.00 in0.0 mm
02:18 PM 68.4°F20.2°C 52.5°F11.4°C 57% 6.3 mph SW10.1 kmh SW 11.6 mph18.7 kmh 29.86 in1011.2 mb 0.00 in0.0 mm 0.00 in0.0 mm 0.00 in0.0 mm
02:23 PM 68.4°F20.2°C 52.0°F11.1°C 56% 8.1 mph WSW13.0 kmh WSW 12.8 mph20.6 kmh 29.86 in1011.2 mb 0.00 in0.0 mm 0.00 in0.0 mm 0.00 in0.0 mm
02:28 PM 67.8°F19.9°C 52.5°F11.4°C 58% 5.8 mph SW9.3 kmh SW 11.6 mph18.7 kmh 29.86 in1011.2 mb 0.00 in0.0 mm 0.00 in0.0 mm 0.00 in0.0 mm
02:33 PM 68.4°F20.2°C 53.1°F11.7°C 58% 6.0 mph SW9.7 kmh SW 11.6 mph18.7 kmh 29.86 in1011.2 mb 0.00 in0.0 mm 0.00 in0.0 mm 0.00 in0.0 mm
02:38 PM 68.2°F20.1°C 53.2°F11.8°C 59% 5.1 mph SW8.2 kmh SW 10.5 mph16.9 kmh 29.87 in1011.5 mb 0.00 in0.0 mm 0.00 in0.0 mm 0.00 in0.0 mm
02:43 PM 68.4°F20.2°C 53.4°F11.9°C 59% 6.9 mph WSW11.1 kmh WSW 14.8 mph23.8 kmh 29.87 in1011.5 mb 0.00 in0.0 mm 0.00 in0.0 mm 0.00 in0.0 mm
02:48 PM 68.5°F20.3°C 54.1°F12.3°C 60% 4.5 mph WSW7.2 kmh WSW 9.6 mph15.4 kmh 29.86 in1011.2 mb 0.00 in0.0 mm 0.00 in0.0 mm 0.00 in0.0 mm
02:53 PM 68.5°F20.3°C 53.2°F11.8°C 58% 5.6 mph SSW9.0 kmh SSW 9.6 mph15.4 kmh 29.87 in1011.5 mb 0.00 in0.0 mm 0.00 in0.0 mm 0.00 in0.0 mm
02:58 PM 68.4°F20.2°C 53.4°F11.9°C 59% 3.4 mph SW5.5 kmh SW 11.6 mph18.7 kmh 29.87 in1011.5 mb 0.00 in0.0 mm 0.00 in0.0 mm 0.00 in0.0 mm
03:03 PM 68.4°F20.2°C 52.0°F11.1°C 56% 6.3 mph WSW10.1 kmh WSW 12.8 mph20.6 kmh 29.87 in1011.5 mb 0.00 in0.0 mm 0.00 in0.0 mm 0.00 in0.0 mm
03:08 PM 68.4°F20.2°C 52.5°F11.4°C 57% 4.7 mph SW7.6 kmh SW 8.5 mph13.7 kmh 29.87 in1011.5 mb 0.00 in0.0 mm 0.00 in0.0 mm 0.00 in0.0 mm
03:13 PM 68.4°F20.2°C 53.1°F11.7°C 58% 3.1 mph WNW5.0 kmh WNW 9.6 mph15.4 kmh 29.87 in1011.5 mb 0.00 in0.0 mm 0.00 in0.0 mm 0.00 in0.0 mm
03:18 PM 68.4°F20.2°C 53.4°F11.9°C 59% 4.3 mph SW6.9 kmh SW 9.6 mph15.4 kmh 29.87 in1011.5 mb 0.00 in0.0 mm 0.00 in0.0 mm 0.00 in0.0 mm
03:23 PM 67.8°F19.9°C 52.5°F11.4°C 58% 5.8 mph SW9.3 kmh SW 10.5 mph16.9 kmh 29.87 in1011.5 mb 0.00 in0.0 mm 0.00 in0.0 mm 0.00 in0.0 mm
03:28 PM 67.6°F19.8°C 52.3°F11.3°C 58% 1.6 mph W2.6 kmh W 10.5 mph16.9 kmh 29.87 in1011.5 mb 0.00 in0.0 mm 0.00 in0.0 mm 0.00 in0.0 mm
03:33 PM 67.6°F19.8°C 52.9°F11.6°C 59% 4.7 mph SSW7.6 kmh SSW 10.5 mph16.9 kmh 29.86 in1011.2 mb 0.00 in0.0 mm 0.00 in0.0 mm 0.00 in0.0 mm
03:38 PM 67.3°F19.6°C 52.9°F11.6°C 60% 1.3 mph SW2.1 kmh SW 6.3 mph10.1 kmh 29.86 in1011.2 mb 0.00 in0.0 mm 0.00 in0.0 mm 0.00 in0.0 mm
03:43 PM 67.3°F19.6°C 53.8°F12.1°C 62% 4.0 mph SW6.4 kmh SW 10.5 mph16.9 kmh 29.87 in1011.5 mb 0.00 in0.0 mm 0.00 in0.0 mm 0.00 in0.0 mm
03:48 PM 66.7°F19.3°C 53.8°F12.1°C 63% 5.1 mph SW8.2 kmh SW 11.6 mph18.7 kmh 29.87 in1011.5 mb 0.00 in0.0 mm 0.00 in0.0 mm 0.00 in0.0 mm
03:53 PM 66.2°F19.0°C 53.6°F12.0°C 64% 4.3 mph SSW6.9 kmh SSW 10.5 mph16.9 kmh 29.87 in1011.5 mb 0.00 in0.0 mm 0.00 in0.0 mm 0.00 in0.0 mm
03:58 PM 66.2°F19.0°C 54.1°F12.3°C 65% 1.8 mph SW2.9 kmh SW 6.3 mph10.1 kmh 29.87 in1011.5 mb 0.00 in0.0 mm 0.00 in0.0 mm 0.00 in0.0 mm
04:03 PM 65.8°F18.8°C 54.1°F12.3°C 66% 2.2 mph SW3.5 kmh SW 6.3 mph10.1 kmh 29.87 in1011.5 mb 0.00 in0.0 mm 0.00 in0.0 mm 0.00 in0.0 mm
04:08 PM 65.7°F18.7°C 54.3°F12.4°C 67% 4.3 mph S6.9 kmh S 9.6 mph15.4 kmh 29.87 in1011.5 mb 0.00 in0.0 mm 0.00 in0.0 mm 0.00 in0.0 mm
04:13 PM 65.7°F18.7°C 54.9°F12.7°C 68% 3.8 mph SW6.1 kmh SW 7.4 mph11.9 kmh 29.87 in1011.5 mb 0.00 in0.0 mm 0.00 in0.0 mm 0.00 in0.0 mm
04:18 PM 65.5°F18.6°C 54.7°F12.6°C 68% 4.9 mph SW7.9 kmh SW 8.5 mph13.7 kmh 29.87 in1011.5 mb 0.00 in0.0 mm 0.00 in0.0 mm 0.00 in0.0 mm
04:23 PM 64.9°F18.3°C 54.5°F12.5°C 69% 2.7 mph SW4.3 kmh SW 6.3 mph10.1 kmh 29.87 in1011.5 mb 0.00 in0.0 mm 0.00 in0.0 mm 0.00 in0.0 mm
04:28 PM 64.8°F18.2°C 54.3°F12.4°C 69% 2.5 mph SW4.0 kmh SW 7.4 mph11.9 kmh 29.87 in1011.5 mb 0.00 in0.0 mm 0.00 in0.0 mm 0.00 in0.0 mm
04:33 PM 64.9°F18.3°C 54.5°F12.5°C 69% 3.1 mph SSW5.0 kmh SSW 7.4 mph11.9 kmh 29.87 in1011.5 mb 0.00 in0.0 mm 0.00 in0.0 mm 0.00 in0.0 mm
04:38 PM 64.8°F18.2°C 53.6°F12.0°C 67% 3.8 mph WSW6.1 kmh WSW 6.3 mph10.1 kmh 29.87 in1011.5 mb 0.00 in0.0 mm 0.00 in0.0 mm 0.00 in0.0 mm
04:43 PM 64.8°F18.2°C 54.0°F12.2°C 68% 3.1 mph SW5.0 kmh SW 6.3 mph10.1 kmh 29.87 in1011.5 mb 0.00 in0.0 mm 0.00 in0.0 mm 0.00 in0.0 mm
04:48 PM 64.6°F18.1°C 54.1°F12.3°C 69% 2.9 mph SW4.7 kmh SW 8.5 mph13.7 kmh 29.87 in1011.5 mb 0.00 in0.0 mm 0.00 in0.0 mm 0.00 in0.0 mm
04:53 PM 64.6°F18.1°C 53.8°F12.1°C 68% 3.1 mph SW5.0 kmh SW 7.4 mph11.9 kmh 29.88 in1011.9 mb 0.00 in0.0 mm 0.00 in0.0 mm 0.00 in0.0 mm
04:58 PM 64.6°F18.1°C 54.1°F12.3°C 69% 0.9 mph SE1.4 kmh SE 4.3 mph6.9 kmh 29.88 in1011.9 mb 0.00 in0.0 mm 0.00 in0.0 mm 0.00 in0.0 mm
05:03 PM 64.6°F18.1°C 55.0°F12.8°C 71% 3.4 mph SW5.5 kmh SW 6.3 mph10.1 kmh 29.88 in1011.9 mb 0.00 in0.0 mm 0.00 in0.0 mm 0.00 in0.0 mm
05:08 PM 64.6°F18.1°C 55.4°F13.0°C 72% 2.7 mph SW4.3 kmh SW 5.4 mph8.7 kmh 29.88 in1011.9 mb 0.00 in0.0 mm 0.00 in0.0 mm 0.00 in0.0 mm
05:13 PM 64.6°F18.1°C 55.4°F13.0°C 72% 0.9 mph NW1.4 kmh NW 4.3 mph6.9 kmh 29.88 in1011.9 mb 0.00 in0.0 mm 0.00 in0.0 mm 0.00 in0.0 mm
05:18 PM 64.4°F18.0°C 55.6°F13.1°C 73% 2.7 mph WSW4.3 kmh WSW 5.4 mph8.7 kmh 29.88 in1011.9 mb 0.00 in0.0 mm 0.00 in0.0 mm 0.00 in0.0 mm
05:23 PM 64.2°F17.9°C 55.8°F13.2°C 74% 2.5 mph WSW4.0 kmh WSW 4.3 mph6.9 kmh 29.89 in1012.2 mb 0.00 in0.0 mm 0.00 in0.0 mm 0.00 in0.0 mm
05:28 PM 64.2°F17.9°C 55.8°F13.2°C 74% 1.6 mph SW2.6 kmh SW 4.3 mph6.9 kmh 29.89 in1012.2 mb 0.00 in0.0 mm 0.00 in0.0 mm 0.00 in0.0 mm
05:33 PM 64.0°F17.8°C 55.6°F13.1°C 74% 2.0 mph WSW3.2 kmh WSW 5.4 mph8.7 kmh 29.89 in1012.2 mb 0.00 in0.0 mm 0.00 in0.0 mm 0.00 in0.0 mm
05:38 PM 63.9°F17.7°C 55.8°F13.2°C 75% 3.1 mph W5.0 kmh W 6.3 mph10.1 kmh 29.89 in1012.2 mb 0.00 in0.0 mm 0.00 in0.0 mm 0.00 in0.0 mm
05:43 PM 63.7°F17.6°C 55.6°F13.1°C 75% 2.2 mph SW3.5 kmh SW 4.3 mph6.9 kmh 29.89 in1012.2 mb 0.00 in0.0 mm 0.00 in0.0 mm 0.00 in0.0 mm
05:48 PM 63.7°F17.6°C 55.6°F13.1°C 75% 1.1 mph SW1.8 kmh SW 3.1 mph5.0 kmh 29.90 in1012.5 mb 0.00 in0.0 mm 0.00 in0.0 mm 0.00 in0.0 mm
05:53 PM 63.5°F17.5°C 55.4°F13.0°C 75% 1.6 mph WSW2.6 kmh WSW 4.3 mph6.9 kmh 29.90 in1012.5 mb 0.00 in0.0 mm 0.00 in0.0 mm 0.00 in0.0 mm
05:58 PM 63.3°F17.4°C 55.2°F12.9°C 75% 1.8 mph SW2.9 kmh SW 3.1 mph5.0 kmh 29.90 in1012.5 mb 0.00 in0.0 mm 0.00 in0.0 mm 0.00 in0.0 mm
06:03 PM 63.3°F17.4°C 55.6°F13.1°C 76% 0.4 mph WSW0.6 kmh WSW 3.1 mph5.0 kmh 29.90 in1012.5 mb 0.00 in0.0 mm 0.00 in0.0 mm 0.00 in0.0 mm
06:08 PM 63.1°F17.3°C 55.4°F13.0°C 76% 1.8 mph SW2.9 kmh SW 4.3 mph6.9 kmh 29.90 in1012.5 mb 0.00 in0.0 mm 0.00 in0.0 mm 0.00 in0.0 mm
06:13 PM 63.1°F17.3°C 55.4°F13.0°C 76% 0.4 mph SW0.6 kmh SW 2.0 mph3.2 kmh 29.91 in1012.9 mb 0.00 in0.0 mm 0.00 in0.0 mm 0.00 in0.0 mm
06:18 PM 63.1°F17.3°C 55.8°F13.2°C 77% Calm Calm 3.1 mph5.0 kmh 29.90 in1012.5 mb 0.00 in0.0 mm 0.00 in0.0 mm 0.00 in0.0 mm
06:23 PM 63.1°F17.3°C 55.8°F13.2°C 77% 2.2 mph W3.5 kmh W 3.1 mph5.0 kmh 29.90 in1012.5 mb 0.00 in0.0 mm 0.00 in0.0 mm 0.00 in0.0 mm
06:28 PM 63.1°F17.3°C 55.8°F13.2°C 77% 0.9 mph WSW1.4 kmh WSW 3.1 mph5.0 kmh 29.90 in1012.5 mb 0.00 in0.0 mm 0.00 in0.0 mm 0.00 in0.0 mm
06:33 PM 63.1°F17.3°C 55.8°F13.2°C 77% 1.3 mph S2.1 kmh S 3.1 mph5.0 kmh 29.91 in1012.9 mb 0.00 in0.0 mm 0.00 in0.0 mm 0.00 in0.0 mm
06:38 PM 63.0°F17.2°C 55.6°F13.1°C 77% 1.8 mph SW2.9 kmh SW 4.3 mph6.9 kmh 29.91 in1012.9 mb 0.00 in0.0 mm 0.00 in0.0 mm 0.00 in0.0 mm
06:43 PM 63.0°F17.2°C 55.9°F13.3°C 78% Calm Calm 3.1 mph5.0 kmh 29.91 in1012.9 mb 0.00 in0.0 mm 0.00 in0.0 mm 0.00 in0.0 mm
06:48 PM 63.0°F17.2°C 55.9°F13.3°C 78% 1.3 mph SSW2.1 kmh SSW 3.1 mph5.0 kmh 29.91 in1012.9 mb 0.00 in0.0 mm 0.00 in0.0 mm 0.00 in0.0 mm
06:53 PM 63.0°F17.2°C 55.9°F13.3°C 78% 0.9 mph WNW1.4 kmh WNW 3.1 mph5.0 kmh 29.91 in1012.9 mb 0.00 in0.0 mm 0.00 in0.0 mm 0.00 in0.0 mm
06:58 PM 63.0°F17.2°C 55.9°F13.3°C 78% 0.9 mph SW1.4 kmh SW 5.4 mph8.7 kmh 29.91 in1012.9 mb 0.00 in0.0 mm 0.00 in0.0 mm 0.00 in0.0 mm
07:03 PM 63.0°F17.2°C 56.3°F13.5°C 79% 2.0 mph SSW3.2 kmh SSW 5.4 mph8.7 kmh 29.91 in1012.9 mb 0.00 in0.0 mm 0.00 in0.0 mm 0.00 in0.0 mm
07:08 PM 63.0°F17.2°C 56.7°F13.7°C 80% 0.9 mph SW1.4 kmh SW 5.4 mph8.7 kmh 29.91 in1012.9 mb 0.00 in0.0 mm 0.00 in0.0 mm 0.00 in0.0 mm
07:13 PM 63.0°F17.2°C 56.7°F13.7°C 80% 2.2 mph WSW3.5 kmh WSW 5.4 mph8.7 kmh 29.91 in1012.9 mb 0.00 in0.0 mm 0.00 in0.0 mm 0.00 in0.0 mm
07:18 PM 63.0°F17.2°C 56.7°F13.7°C 80% 1.8 mph SW2.9 kmh SW 4.3 mph6.9 kmh 29.91 in1012.9 mb 0.00 in0.0 mm 0.00 in0.0 mm 0.00 in0.0 mm
07:23 PM 62.8°F17.1°C 56.5°F13.6°C 80% 1.6 mph W2.6 kmh W 3.1 mph5.0 kmh 29.91 in1012.9 mb 0.00 in0.0 mm 0.00 in0.0 mm 0.00 in0.0 mm
07:28 PM 62.8°F17.1°C 56.5°F13.6°C 80% 2.2 mph SW3.5 kmh SW 5.4 mph8.7 kmh 29.92 in1013.2 mb 0.00 in0.0 mm 0.00 in0.0 mm 0.00 in0.0 mm
07:33 PM 62.6°F17.0°C 56.3°F13.5°C 80% 0.9 mph S1.4 kmh S 5.4 mph8.7 kmh 29.91 in1012.9 mb 0.00 in0.0 mm 0.00 in0.0 mm 0.00 in0.0 mm
07:38 PM 62.4°F16.9°C 56.1°F13.4°C 80% 1.1 mph WSW1.8 kmh WSW 3.1 mph5.0 kmh 29.92 in1013.2 mb 0.00 in0.0 mm 0.00 in0.0 mm 0.00 in0.0 mm
07:43 PM 62.4°F16.9°C 56.5°F13.6°C 81% Calm Calm 2.0 mph3.2 kmh 29.92 in1013.2 mb 0.00 in0.0 mm 0.00 in0.0 mm 0.00 in0.0 mm
07:48 PM 62.2°F16.8°C 56.3°F13.5°C 81% 0.9 mph SW1.4 kmh SW 4.3 mph6.9 kmh 29.92 in1013.2 mb 0.00 in0.0 mm 0.00 in0.0 mm 0.00 in0.0 mm
07:53 PM 62.2°F16.8°C 56.3°F13.5°C 81% 1.3 mph SW2.1 kmh SW 3.1 mph5.0 kmh 29.92 in1013.2 mb 0.00 in0.0 mm 0.00 in0.0 mm 0.00 in0.0 mm
07:58 PM 62.2°F16.8°C 56.3°F13.5°C 81% Calm Calm 1.1 mph1.8 kmh 29.92 in1013.2 mb 0.00 in0.0 mm 0.00 in0.0 mm 0.00 in0.0 mm
08:03 PM 62.2°F16.8°C 56.3°F13.5°C 81% Calm Calm 2.0 mph3.2 kmh 29.92 in1013.2 mb 0.00 in0.0 mm 0.00 in0.0 mm 0.00 in0.0 mm
08:08 PM 62.2°F16.8°C 55.9°F13.3°C 80% 0.2 mph SW0.3 kmh SW 2.0 mph3.2 kmh 29.92 in1013.2 mb 0.00 in0.0 mm 0.00 in0.0 mm 0.00 in0.0 mm
08:13 PM 62.2°F16.8°C 55.9°F13.3°C 80% Calm Calm 2.0 mph3.2 kmh 29.92 in1013.2 mb 0.00 in0.0 mm 0.00 in0.0 mm 0.00 in0.0 mm
08:18 PM 62.2°F16.8°C 55.9°F13.3°C 80% Calm Calm 1.1 mph1.8 kmh 29.92 in1013.2 mb 0.00 in0.0 mm 0.00 in0.0 mm 0.00 in0.0 mm
08:23 PM 62.2°F16.8°C 55.9°F13.3°C 80% 0.2 mph SW0.3 kmh SW 1.1 mph1.8 kmh 29.93 in1013.5 mb 0.00 in0.0 mm 0.00 in0.0 mm 0.00 in0.0 mm
08:28 PM 62.1°F16.7°C 55.8°F13.2°C 80% Calm Calm 1.1 mph1.8 kmh 29.93 in1013.5 mb 0.00 in0.0 mm 0.00 in0.0 mm 0.00 in0.0 mm
08:33 PM 62.1°F16.7°C 55.8°F13.2°C 80% Calm Calm -- 29.93 in1013.5 mb 0.00 in0.0 mm 0.00 in0.0 mm 0.00 in0.0 mm
08:38 PM 62.1°F16.7°C 55.8°F13.2°C 80% Calm Calm -- 29.93 in1013.5 mb 0.00 in0.0 mm 0.00 in0.0 mm 0.00 in0.0 mm
08:43 PM 62.1°F16.7°C 55.8°F13.2°C 80% Calm Calm -- 29.93 in1013.5 mb 0.00 in0.0 mm 0.00 in0.0 mm 0.00 in0.0 mm
08:48 PM 62.1°F16.7°C 55.8°F13.2°C 80% Calm Calm -- 29.93 in1013.5 mb 0.00 in0.0 mm 0.00 in0.0 mm 0.00 in0.0 mm
08:53 PM 62.1°F16.7°C 55.8°F13.2°C 80% Calm Calm -- 29.93 in1013.5 mb 0.00 in0.0 mm 0.00 in0.0 mm 0.00 in0.0 mm
08:58 PM 62.1°F16.7°C 55.8°F13.2°C 80% Calm Calm -- 29.93 in1013.5 mb 0.00 in0.0 mm 0.00 in0.0 mm 0.00 in0.0 mm
09:03 PM 62.1°F16.7°C 55.8°F13.2°C 80% 0.4 mph SW0.6 kmh SW 1.1 mph1.8 kmh 29.93 in1013.5 mb 0.00 in0.0 mm 0.00 in0.0 mm 0.00 in0.0 mm
09:08 PM 62.1°F16.7°C 55.8°F13.2°C 80% 0.7 mph WSW1.1 kmh WSW 2.0 mph3.2 kmh 29.93 in1013.5 mb 0.00 in0.0 mm 0.00 in0.0 mm 0.00 in0.0 mm
09:13 PM 62.1°F16.7°C 55.8°F13.2°C 80% 0.2 mph SW0.3 kmh SW 2.0 mph3.2 kmh 29.94 in1013.9 mb 0.00 in0.0 mm 0.00 in0.0 mm 0.00 in0.0 mm
09:18 PM 62.1°F16.7°C 55.8°F13.2°C 80% 0.2 mph WSW0.3 kmh WSW 1.1 mph1.8 kmh 29.94 in1013.9 mb 0.00 in0.0 mm 0.00 in0.0 mm 0.00 in0.0 mm
09:23 PM 62.1°F16.7°C 55.8°F13.2°C 80% 0.2 mph SW0.3 kmh SW 2.0 mph3.2 kmh 29.94 in1013.9 mb 0.00 in0.0 mm 0.00 in0.0 mm 0.00 in0.0 mm
09:28 PM 62.1°F16.7°C 55.8°F13.2°C 80% 0.7 mph WSW1.1 kmh WSW 2.0 mph3.2 kmh 29.94 in1013.9 mb 0.00 in0.0 mm 0.00 in0.0 mm 0.00 in0.0 mm
09:33 PM 62.1°F16.7°C 55.8°F13.2°C 80% Calm Calm 1.1 mph1.8 kmh 29.94 in1013.9 mb 0.00 in0.0 mm 0.00 in0.0 mm 0.00 in0.0 mm
09:38 PM 62.1°F16.7°C 55.8°F13.2°C 80% 0.4 mph SSW0.6 kmh SSW 2.0 mph3.2 kmh 29.94 in1013.9 mb 0.00 in0.0 mm 0.00 in0.0 mm 0.00 in0.0 mm
09:43 PM 62.1°F16.7°C 55.8°F13.2°C 80% 0.7 mph SSW1.1 kmh SSW 2.0 mph3.2 kmh 29.94 in1013.9 mb 0.00 in0.0 mm 0.00 in0.0 mm 0.00 in0.0 mm
09:48 PM 62.2°F16.8°C 55.9°F13.3°C 80% 0.9 mph WSW1.4 kmh WSW 2.0 mph3.2 kmh 29.94 in1013.9 mb 0.00 in0.0 mm 0.00 in0.0 mm 0.00 in0.0 mm
09:53 PM 62.2°F16.8°C 55.9°F13.3°C 80% Calm Calm 1.1 mph1.8 kmh 29.94 in1013.9 mb 0.00 in0.0 mm 0.00 in0.0 mm 0.00 in0.0 mm
09:58 PM 62.2°F16.8°C 55.9°F13.3°C 80% 0.4 mph SW0.6 kmh SW 1.1 mph1.8 kmh 29.94 in1013.9 mb 0.00 in0.0 mm 0.00 in0.0 mm 0.00 in0.0 mm
10:03 PM 62.2°F16.8°C 55.9°F13.3°C 80% Calm Calm 1.1 mph1.8 kmh 29.94 in1013.9 mb 0.00 in0.0 mm 0.00 in0.0 mm 0.00 in0.0 mm
10:08 PM 62.2°F16.8°C 55.9°F13.3°C 80% 0.2 mph SW0.3 kmh SW 2.0 mph3.2 kmh 29.94 in1013.9 mb 0.00 in0.0 mm 0.00 in0.0 mm 0.00 in0.0 mm
10:13 PM 62.2°F16.8°C 55.9°F13.3°C 80% 0.2 mph SW0.3 kmh SW 2.0 mph3.2 kmh 29.94 in1013.9 mb 0.00 in0.0 mm 0.00 in0.0 mm 0.00 in0.0 mm
10:18 PM 62.2°F16.8°C 55.9°F13.3°C 80% Calm Calm 2.0 mph3.2 kmh 29.94 in1013.9 mb 0.00 in0.0 mm 0.00 in0.0 mm 0.00 in0.0 mm
10:23 PM 62.1°F16.7°C 55.8°F13.2°C 80% Calm Calm -- 29.94 in1013.9 mb 0.00 in0.0 mm 0.00 in0.0 mm 0.00 in0.0 mm
10:28 PM 62.1°F16.7°C 55.8°F13.2°C 80% Calm Calm -- 29.94 in1013.9 mb 0.00 in0.0 mm 0.00 in0.0 mm 0.00 in0.0 mm
10:33 PM 62.1°F16.7°C 55.8°F13.2°C 80% Calm Calm 1.1 mph1.8 kmh 29.94 in1013.9 mb 0.00 in0.0 mm 0.00 in0.0 mm 0.00 in0.0 mm
10:38 PM 62.1°F16.7°C 55.8°F13.2°C 80% Calm Calm -- 29.94 in1013.9 mb 0.00 in0.0 mm 0.00 in0.0 mm 0.00 in0.0 mm
10:43 PM 62.1°F16.7°C 55.8°F13.2°C 80% Calm Calm 1.1 mph1.8 kmh 29.94 in1013.9 mb 0.00 in0.0 mm 0.00 in0.0 mm 0.00 in0.0 mm
10:48 PM 62.1°F16.7°C 55.8°F13.2°C 80% Calm Calm -- 29.94 in1013.9 mb 0.00 in0.0 mm 0.00 in0.0 mm 0.00 in0.0 mm
10:53 PM 62.1°F16.7°C 55.8°F13.2°C 80% Calm Calm -- 29.94 in1013.9 mb 0.00 in0.0 mm 0.00 in0.0 mm 0.00 in0.0 mm
10:58 PM 62.1°F16.7°C 56.1°F13.4°C 81% Calm Calm 1.1 mph1.8 kmh 29.94 in1013.9 mb 0.00 in0.0 mm 0.00 in0.0 mm 0.00 in0.0 mm
11:03 PM 62.1°F16.7°C 56.1°F13.4°C 81% Calm Calm -- 29.94 in1013.9 mb 0.00 in0.0 mm 0.00 in0.0 mm 0.00 in0.0 mm
11:08 PM 62.1°F16.7°C 56.1°F13.4°C 81% Calm Calm 1.1 mph1.8 kmh 29.94 in1013.9 mb 0.00 in0.0 mm 0.00 in0.0 mm 0.00 in0.0 mm
11:13 PM 62.1°F16.7°C 56.1°F13.4°C 81% Calm Calm 2.0 mph3.2 kmh 29.94 in1013.9 mb 0.00 in0.0 mm 0.00 in0.0 mm 0.00 in0.0 mm
11:18 PM 62.1°F16.7°C 56.1°F13.4°C 81% Calm Calm -- 29.94 in1013.9 mb 0.00 in0.0 mm 0.00 in0.0 mm 0.00 in0.0 mm
11:23 PM 62.1°F16.7°C 56.1°F13.4°C 81% Calm Calm -- 29.94 in1013.9 mb 0.00 in0.0 mm 0.00 in0.0 mm 0.00 in0.0 mm
11:28 PM 62.1°F16.7°C 56.1°F13.4°C 81% Calm Calm -- 29.94 in1013.9 mb 0.00 in0.0 mm 0.00 in0.0 mm 0.00 in0.0 mm
11:33 PM 62.1°F16.7°C 56.1°F13.4°C 81% Calm Calm -- 29.94 in1013.9 mb 0.00 in0.0 mm 0.00 in0.0 mm 0.00 in0.0 mm
11:38 PM 62.1°F16.7°C 56.1°F13.4°C 81% Calm Calm -- 29.94 in1013.9 mb 0.00 in0.0 mm 0.00 in0.0 mm 0.00 in0.0 mm
11:43 PM 62.1°F16.7°C 56.1°F13.4°C 81% Calm Calm -- 29.94 in1013.9 mb 0.00 in0.0 mm 0.00 in0.0 mm 0.00 in0.0 mm
11:48 PM 62.1°F16.7°C 56.1°F13.4°C 81% Calm Calm -- 29.94 in1013.9 mb 0.00 in0.0 mm 0.00 in0.0 mm 0.00 in0.0 mm
11:53 PM 61.9°F16.6°C 55.9°F13.3°C 81% Calm Calm -- 29.94 in1013.9 mb 0.00 in0.0 mm 0.00 in0.0 mm 0.00 in0.0 mm
11:58 PM 61.9°F16.6°C 55.9°F13.3°C 81% Calm Calm -- 29.94 in1013.9 mb 0.00 in0.0 mm 0.00 in0.0 mm 0.00 in0.0 mm